sensor_id;sensor_type;location;lat;lon;timestamp;temperature;humidity
81266;DHT22;70748;52.510;13.410;2023-07-31T00:00:45;16.50;79.20
81266;DHT22;70748;52.510;13.410;2023-07-31T00:03:11;16.50;79.30
81266;DHT22;70748;52.510;13.410;2023-07-31T00:05:37;16.40;80.80
81266;DHT22;70748;52.510;13.410;2023-07-31T00:08:03;16.30;81.30
81266;DHT22;70748;52.510;13.410;2023-07-31T00:10:28;16.30;81.30
81266;DHT22;70748;52.510;13.410;2023-07-31T00:12:54;16.30;81.60
81266;DHT22;70748;52.510;13.410;2023-07-31T00:15:20;16.30;82.20
81266;DHT22;70748;52.510;13.410;2023-07-31T00:17:45;16.20;82.00
81266;DHT22;70748;52.510;13.410;2023-07-31T00:20:12;16.10;82.20
81266;DHT22;70748;52.510;13.410;2023-07-31T00:22:37;16.10;82.50
81266;DHT22;70748;52.510;13.410;2023-07-31T00:25:03;16.10;82.80
81266;DHT22;70748;52.510;13.410;2023-07-31T00:27:32;16.10;83.10
81266;DHT22;70748;52.510;13.410;2023-07-31T00:29:58;16.10;83.20
81266;DHT22;70748;52.510;13.410;2023-07-31T00:32:24;16.20;83.10
81266;DHT22;70748;52.510;13.410;2023-07-31T00:34:49;16.20;82.70
81266;DHT22;70748;52.510;13.410;2023-07-31T00:37:15;16.20;82.40
81266;DHT22;70748;52.510;13.410;2023-07-31T00:39:41;16.20;82.70
81266;DHT22;70748;52.510;13.410;2023-07-31T00:42:06;16.10;83.30
81266;DHT22;70748;52.510;13.410;2023-07-31T00:44:32;16.00;83.20
81266;DHT22;70748;52.510;13.410;2023-07-31T00:46:58;16.00;83.50
81266;DHT22;70748;52.510;13.410;2023-07-31T00:49:25;16.10;83.80
81266;DHT22;70748;52.510;13.410;2023-07-31T00:51:52;16.10;83.90
81266;DHT22;70748;52.510;13.410;2023-07-31T00:54:18;16.10;84.30
81266;DHT22;70748;52.510;13.410;2023-07-31T00:56:45;16.10;84.10
81266;DHT22;70748;52.510;13.410;2023-07-31T00:59:11;16.10;84.40
81266;DHT22;70748;52.510;13.410;2023-07-31T01:01:38;16.20;84.10
81266;DHT22;70748;52.510;13.410;2023-07-31T01:04:04;16.30;84.20
81266;DHT22;70748;52.510;13.410;2023-07-31T01:09:11;16.40;83.90
81266;DHT22;70748;52.510;13.410;2023-07-31T01:11:51;16.50;82.50
81266;DHT22;70748;52.510;13.410;2023-07-31T01:14:18;16.50;82.80
81266;DHT22;70748;52.510;13.410;2023-07-31T01:16:43;16.50;82.80
81266;DHT22;70748;52.510;13.410;2023-07-31T01:19:09;16.50;82.80
81266;DHT22;70748;52.510;13.410;2023-07-31T01:26:38;16.60;83.10
81266;DHT22;70748;52.510;13.410;2023-07-31T01:29:20;16.60;82.50
81266;DHT22;70748;52.510;13.410;2023-07-31T01:31:50;16.70;82.70
81266;DHT22;70748;52.510;13.410;2023-07-31T01:34:19;16.80;82.60
81266;DHT22;70748;52.510;13.410;2023-07-31T01:36:46;16.80;82.40
81266;DHT22;70748;52.510;13.410;2023-07-31T01:39:11;16.80;82.40
81266;DHT22;70748;52.510;13.410;2023-07-31T01:41:37;16.80;81.90
81266;DHT22;70748;52.510;13.410;2023-07-31T01:44:03;16.80;82.60
81266;DHT22;70748;52.510;13.410;2023-07-31T01:46:28;16.80;82.70
81266;DHT22;70748;52.510;13.410;2023-07-31T01:48:54;16.80;82.40
81266;DHT22;70748;52.510;13.410;2023-07-31T01:51:20;16.80;82.30
81266;DHT22;70748;52.510;13.410;2023-07-31T01:53:46;16.80;82.70
81266;DHT22;70748;52.510;13.410;2023-07-31T01:56:11;16.90;82.10
81266;DHT22;70748;52.510;13.410;2023-07-31T01:58:37;16.90;82.50
81266;DHT22;70748;52.510;13.410;2023-07-31T02:01:02;17.00;81.90
81266;DHT22;70748;52.510;13.410;2023-07-31T02:03:28;17.00;81.70
81266;DHT22;70748;52.510;13.410;2023-07-31T02:05:54;17.00;80.90
81266;DHT22;70748;52.510;13.410;2023-07-31T02:08:20;17.00;80.90
81266;DHT22;70748;52.510;13.410;2023-07-31T02:10:45;16.90;81.40
81266;DHT22;70748;52.510;13.410;2023-07-31T02:13:11;16.90;81.90
81266;DHT22;70748;52.510;13.410;2023-07-31T02:15:37;16.90;82.10
81266;DHT22;70748;52.510;13.410;2023-07-31T02:18:03;17.00;82.20
81266;DHT22;70748;52.510;13.410;2023-07-31T02:20:28;16.90;82.40
81266;DHT22;70748;52.510;13.410;2023-07-31T02:22:54;17.10;82.10
81266;DHT22;70748;52.510;13.410;2023-07-31T02:25:19;17.10;82.00
81266;DHT22;70748;52.510;13.410;2023-07-31T02:27:45;17.00;82.10
81266;DHT22;70748;52.510;13.410;2023-07-31T02:30:11;17.00;81.90
81266;DHT22;70748;52.510;13.410;2023-07-31T02:32:36;16.90;82.20
81266;DHT22;70748;52.510;13.410;2023-07-31T02:35:02;17.00;82.60
81266;DHT22;70748;52.510;13.410;2023-07-31T02:37:28;17.00;81.70
81266;DHT22;70748;52.510;13.410;2023-07-31T02:39:54;17.00;81.50
81266;DHT22;70748;52.510;13.410;2023-07-31T02:42:20;17.10;81.70
81266;DHT22;70748;52.510;13.410;2023-07-31T02:44:46;17.00;81.70
81266;DHT22;70748;52.510;13.410;2023-07-31T02:47:11;17.10;81.80
81266;DHT22;70748;52.510;13.410;2023-07-31T02:49:37;17.10;81.40
81266;DHT22;70748;52.510;13.410;2023-07-31T02:52:03;17.00;81.50
81266;DHT22;70748;52.510;13.410;2023-07-31T02:54:29;17.00;81.90
81266;DHT22;70748;52.510;13.410;2023-07-31T02:56:54;17.00;81.70
81266;DHT22;70748;52.510;13.410;2023-07-31T02:59:20;17.00;81.80
81266;DHT22;70748;52.510;13.410;2023-07-31T03:01:46;16.90;82.40
81266;DHT22;70748;52.510;13.410;2023-07-31T03:04:12;16.90;82.30
81266;DHT22;70748;52.510;13.410;2023-07-31T03:06:37;16.90;82.80
81266;DHT22;70748;52.510;13.410;2023-07-31T03:09:03;16.90;82.90
81266;DHT22;70748;52.510;13.410;2023-07-31T03:11:28;16.90;81.80
81266;DHT22;70748;52.510;13.410;2023-07-31T03:13:54;16.90;82.10
81266;DHT22;70748;52.510;13.410;2023-07-31T03:16:20;17.00;81.70
81266;DHT22;70748;52.510;13.410;2023-07-31T03:18:45;17.00;81.70
81266;DHT22;70748;52.510;13.410;2023-07-31T03:21:12;17.00;82.20
81266;DHT22;70748;52.510;13.410;2023-07-31T03:23:38;17.00;81.50
81266;DHT22;70748;52.510;13.410;2023-07-31T03:26:07;17.00;81.40
81266;DHT22;70748;52.510;13.410;2023-07-31T03:28:33;16.90;82.30
81266;DHT22;70748;52.510;13.410;2023-07-31T03:30:59;16.90;82.70
81266;DHT22;70748;52.510;13.410;2023-07-31T03:33:25;16.80;83.00
81266;DHT22;70748;52.510;13.410;2023-07-31T03:35:51;16.80;83.30
81266;DHT22;70748;52.510;13.410;2023-07-31T03:38:17;16.90;83.60
81266;DHT22;70748;52.510;13.410;2023-07-31T03:40:43;16.90;83.30
81266;DHT22;70748;52.510;13.410;2023-07-31T03:43:08;16.90;83.30
81266;DHT22;70748;52.510;13.410;2023-07-31T03:45:34;16.90;83.50
81266;DHT22;70748;52.510;13.410;2023-07-31T03:48:00;16.80;83.60
81266;DHT22;70748;52.510;13.410;2023-07-31T03:50:25;16.80;84.10
81266;DHT22;70748;52.510;13.410;2023-07-31T03:52:51;16.90;83.70
81266;DHT22;70748;52.510;13.410;2023-07-31T03:55:17;16.90;83.50
81266;DHT22;70748;52.510;13.410;2023-07-31T03:57:43;16.90;83.50
81266;DHT22;70748;52.510;13.410;2023-07-31T04:00:09;16.90;83.40
81266;DHT22;70748;52.510;13.410;2023-07-31T04:02:35;16.80;82.90
81266;DHT22;70748;52.510;13.410;2023-07-31T04:05:01;16.90;82.80
81266;DHT22;70748;52.510;13.410;2023-07-31T04:07:26;16.90;82.70
81266;DHT22;70748;52.510;13.410;2023-07-31T04:09:52;16.90;82.90
81266;DHT22;70748;52.510;13.410;2023-07-31T04:12:18;16.90;82.60
81266;DHT22;70748;52.510;13.410;2023-07-31T04:14:43;16.90;82.50
81266;DHT22;70748;52.510;13.410;2023-07-31T04:17:09;16.90;82.40
81266;DHT22;70748;52.510;13.410;2023-07-31T04:19:34;17.00;82.20
81266;DHT22;70748;52.510;13.410;2023-07-31T04:22:00;16.90;82.00
81266;DHT22;70748;52.510;13.410;2023-07-31T04:24:26;17.00;82.00
81266;DHT22;70748;52.510;13.410;2023-07-31T04:26:52;17.10;81.70
81266;DHT22;70748;52.510;13.410;2023-07-31T04:29:18;17.10;81.60
81266;DHT22;70748;52.510;13.410;2023-07-31T04:31:44;17.10;81.90
81266;DHT22;70748;52.510;13.410;2023-07-31T04:34:10;17.10;81.70
81266;DHT22;70748;52.510;13.410;2023-07-31T04:36:37;17.20;82.30
81266;DHT22;70748;52.510;13.410;2023-07-31T04:39:02;17.30;81.90
81266;DHT22;70748;52.510;13.410;2023-07-31T04:41:28;17.20;80.60
81266;DHT22;70748;52.510;13.410;2023-07-31T04:43:54;17.30;81.20
81266;DHT22;70748;52.510;13.410;2023-07-31T04:46:19;17.30;81.30
81266;DHT22;70748;52.510;13.410;2023-07-31T04:48:45;17.30;81.20
81266;DHT22;70748;52.510;13.410;2023-07-31T04:51:11;17.30;81.40
81266;DHT22;70748;52.510;13.410;2023-07-31T04:53:37;17.30;81.40
81266;DHT22;70748;52.510;13.410;2023-07-31T05:00:04;17.30;81.40
81266;DHT22;70748;52.510;13.410;2023-07-31T05:05:52;17.40;82.30
81266;DHT22;70748;52.510;13.410;2023-07-31T05:08:18;17.40;83.60
81266;DHT22;70748;52.510;13.410;2023-07-31T05:10:44;17.40;82.90
81266;DHT22;70748;52.510;13.410;2023-07-31T05:13:09;17.60;82.00
81266;DHT22;70748;52.510;13.410;2023-07-31T05:15:35;17.60;82.20
81266;DHT22;70748;52.510;13.410;2023-07-31T05:18:00;17.60;81.20
81266;DHT22;70748;52.510;13.410;2023-07-31T05:20:26;17.70;81.50
81266;DHT22;70748;52.510;13.410;2023-07-31T05:22:53;17.90;80.70
81266;DHT22;70748;52.510;13.410;2023-07-31T05:25:18;17.90;80.40
81266;DHT22;70748;52.510;13.410;2023-07-31T05:27:44;18.00;80.50
81266;DHT22;70748;52.510;13.410;2023-07-31T05:30:10;18.00;80.40
81266;DHT22;70748;52.510;13.410;2023-07-31T05:32:36;18.10;80.30
81266;DHT22;70748;52.510;13.410;2023-07-31T05:35:01;18.20;80.00
81266;DHT22;70748;52.510;13.410;2023-07-31T05:37:27;18.10;78.90
81266;DHT22;70748;52.510;13.410;2023-07-31T05:39:53;18.20;79.20
81266;DHT22;70748;52.510;13.410;2023-07-31T05:42:18;18.10;79.30
81266;DHT22;70748;52.510;13.410;2023-07-31T05:44:44;18.10;79.30
81266;DHT22;70748;52.510;13.410;2023-07-31T05:47:10;18.20;78.00
81266;DHT22;70748;52.510;13.410;2023-07-31T05:49:36;18.10;78.50
81266;DHT22;70748;52.510;13.410;2023-07-31T05:52:01;18.10;78.60
81266;DHT22;70748;52.510;13.410;2023-07-31T05:54:27;18.30;79.00
81266;DHT22;70748;52.510;13.410;2023-07-31T05:56:53;18.30;78.50
81266;DHT22;70748;52.510;13.410;2023-07-31T05:59:18;18.30;78.00
81266;DHT22;70748;52.510;13.410;2023-07-31T06:01:44;18.40;78.60
81266;DHT22;70748;52.510;13.410;2023-07-31T06:04:10;18.40;78.40
81266;DHT22;70748;52.510;13.410;2023-07-31T06:06:35;18.40;78.30
81266;DHT22;70748;52.510;13.410;2023-07-31T06:09:01;18.50;77.70
81266;DHT22;70748;52.510;13.410;2023-07-31T06:11:29;18.60;77.70
81266;DHT22;70748;52.510;13.410;2023-07-31T06:13:54;18.50;77.80
81266;DHT22;70748;52.510;13.410;2023-07-31T06:16:20;18.60;78.10
81266;DHT22;70748;52.510;13.410;2023-07-31T06:18:47;18.60;77.20
81266;DHT22;70748;52.510;13.410;2023-07-31T06:21:13;18.60;77.60
81266;DHT22;70748;52.510;13.410;2023-07-31T06:23:38;18.60;77.50
81266;DHT22;70748;52.510;13.410;2023-07-31T06:26:04;18.60;77.50
81266;DHT22;70748;52.510;13.410;2023-07-31T06:28:31;18.60;78.40
81266;DHT22;70748;52.510;13.410;2023-07-31T06:30:57;18.70;78.40
81266;DHT22;70748;52.510;13.410;2023-07-31T06:33:24;18.60;78.70
81266;DHT22;70748;52.510;13.410;2023-07-31T06:35:50;18.70;77.40
81266;DHT22;70748;52.510;13.410;2023-07-31T06:38:15;18.70;78.40
81266;DHT22;70748;52.510;13.410;2023-07-31T06:40:41;18.70;78.20
81266;DHT22;70748;52.510;13.410;2023-07-31T06:43:07;18.70;78.40
81266;DHT22;70748;52.510;13.410;2023-07-31T06:45:36;18.90;77.00
81266;DHT22;70748;52.510;13.410;2023-07-31T06:48:02;19.00;78.30
81266;DHT22;70748;52.510;13.410;2023-07-31T06:50:30;19.00;77.00
81266;DHT22;70748;52.510;13.410;2023-07-31T06:52:56;19.10;76.40
81266;DHT22;70748;52.510;13.410;2023-07-31T06:55:22;19.10;76.20
81266;DHT22;70748;52.510;13.410;2023-07-31T06:57:49;19.10;77.00
81266;DHT22;70748;52.510;13.410;2023-07-31T07:00:16;19.00;75.70
81266;DHT22;70748;52.510;13.410;2023-07-31T07:02:42;19.00;75.90
81266;DHT22;70748;52.510;13.410;2023-07-31T07:05:08;18.90;76.80
81266;DHT22;70748;52.510;13.410;2023-07-31T07:07:34;19.00;76.40
81266;DHT22;70748;52.510;13.410;2023-07-31T07:10:00;19.10;75.60
81266;DHT22;70748;52.510;13.410;2023-07-31T07:12:29;19.10;75.30
81266;DHT22;70748;52.510;13.410;2023-07-31T07:14:55;19.00;75.40
81266;DHT22;70748;52.510;13.410;2023-07-31T07:17:23;19.00;75.40
81266;DHT22;70748;52.510;13.410;2023-07-31T07:19:48;19.00;76.00
81266;DHT22;70748;52.510;13.410;2023-07-31T07:22:14;19.00;76.00
81266;DHT22;70748;52.510;13.410;2023-07-31T07:24:40;19.00;76.10
81266;DHT22;70748;52.510;13.410;2023-07-31T07:27:06;19.00;76.30
81266;DHT22;70748;52.510;13.410;2023-07-31T07:29:33;19.10;76.70
81266;DHT22;70748;52.510;13.410;2023-07-31T07:31:59;19.30;75.70
81266;DHT22;70748;52.510;13.410;2023-07-31T07:34:28;19.70;73.40
81266;DHT22;70748;52.510;13.410;2023-07-31T07:36:54;19.80;73.50
81266;DHT22;70748;52.510;13.410;2023-07-31T07:39:20;19.70;75.30
81266;DHT22;70748;52.510;13.410;2023-07-31T07:41:46;19.30;75.40
81266;DHT22;70748;52.510;13.410;2023-07-31T07:44:12;19.10;76.20
81266;DHT22;70748;52.510;13.410;2023-07-31T07:46:38;19.00;76.20
81266;DHT22;70748;52.510;13.410;2023-07-31T07:49:04;19.10;77.80
81266;DHT22;70748;52.510;13.410;2023-07-31T07:51:30;19.20;77.50
81266;DHT22;70748;52.510;13.410;2023-07-31T07:54:00;19.30;76.80
81266;DHT22;70748;52.510;13.410;2023-07-31T07:56:26;19.30;76.90
81266;DHT22;70748;52.510;13.410;2023-07-31T07:58:53;19.30;76.70
81266;DHT22;70748;52.510;13.410;2023-07-31T08:01:19;19.40;75.70
81266;DHT22;70748;52.510;13.410;2023-07-31T08:03:44;19.40;76.40
81266;DHT22;70748;52.510;13.410;2023-07-31T08:06:10;19.50;73.90
81266;DHT22;70748;52.510;13.410;2023-07-31T08:08:36;19.50;74.70
81266;DHT22;70748;52.510;13.410;2023-07-31T08:11:02;19.40;75.40
81266;DHT22;70748;52.510;13.410;2023-07-31T08:13:28;19.40;75.20
81266;DHT22;70748;52.510;13.410;2023-07-31T08:15:54;19.30;75.70
81266;DHT22;70748;52.510;13.410;2023-07-31T08:18:19;19.10;76.20
81266;DHT22;70748;52.510;13.410;2023-07-31T08:20:45;19.10;76.80
81266;DHT22;70748;52.510;13.410;2023-07-31T08:23:11;19.20;77.60
81266;DHT22;70748;52.510;13.410;2023-07-31T08:25:37;19.20;76.90
81266;DHT22;70748;52.510;13.410;2023-07-31T08:28:03;19.20;76.50
81266;DHT22;70748;52.510;13.410;2023-07-31T08:30:29;19.30;75.90
81266;DHT22;70748;52.510;13.410;2023-07-31T08:32:55;19.50;77.00
81266;DHT22;70748;52.510;13.410;2023-07-31T08:35:21;19.60;75.40
81266;DHT22;70748;52.510;13.410;2023-07-31T08:37:47;19.60;74.80
81266;DHT22;70748;52.510;13.410;2023-07-31T08:40:12;19.40;75.70
81266;DHT22;70748;52.510;13.410;2023-07-31T08:42:49;19.40;76.90
81266;DHT22;70748;52.510;13.410;2023-07-31T08:45:16;19.50;75.20
81266;DHT22;70748;52.510;13.410;2023-07-31T08:47:48;19.50;75.80
81266;DHT22;70748;52.510;13.410;2023-07-31T08:50:15;19.50;75.90
81266;DHT22;70748;52.510;13.410;2023-07-31T08:52:41;19.70;75.20
81266;DHT22;70748;52.510;13.410;2023-07-31T08:55:08;19.90;75.00
81266;DHT22;70748;52.510;13.410;2023-07-31T08:57:36;20.00;73.80
81266;DHT22;70748;52.510;13.410;2023-07-31T09:00:03;20.10;74.20
81266;DHT22;70748;52.510;13.410;2023-07-31T09:02:38;20.30;73.60
81266;DHT22;70748;52.510;13.410;2023-07-31T09:05:07;20.40;72.10
81266;DHT22;70748;52.510;13.410;2023-07-31T09:07:34;20.50;72.10
81266;DHT22;70748;52.510;13.410;2023-07-31T09:10:01;20.60;71.10
81266;DHT22;70748;52.510;13.410;2023-07-31T09:12:28;20.70;71.30
81266;DHT22;70748;52.510;13.410;2023-07-31T09:14:53;21.00;70.90
81266;DHT22;70748;52.510;13.410;2023-07-31T09:17:36;21.10;69.50
81266;DHT22;70748;52.510;13.410;2023-07-31T09:20:17;21.40;69.90
81266;DHT22;70748;52.510;13.410;2023-07-31T09:22:44;21.20;69.50
81266;DHT22;70748;52.510;13.410;2023-07-31T09:25:20;20.90;70.50
81266;DHT22;70748;52.510;13.410;2023-07-31T09:28:04;20.60;71.00
81266;DHT22;70748;52.510;13.410;2023-07-31T09:30:31;20.30;71.60
81266;DHT22;70748;52.510;13.410;2023-07-31T09:33:06;20.00;72.90
81266;DHT22;70748;52.510;13.410;2023-07-31T09:35:35;19.80;73.80
81266;DHT22;70748;52.510;13.410;2023-07-31T09:38:09;19.80;75.00
81266;DHT22;70748;52.510;13.410;2023-07-31T09:40:40;19.60;74.90
81266;DHT22;70748;52.510;13.410;2023-07-31T09:43:10;19.40;76.30
81266;DHT22;70748;52.510;13.410;2023-07-31T09:45:38;19.30;76.40
81266;DHT22;70748;52.510;13.410;2023-07-31T09:48:11;19.30;77.10
81266;DHT22;70748;52.510;13.410;2023-07-31T09:50:38;19.30;77.10
81266;DHT22;70748;52.510;13.410;2023-07-31T09:53:08;19.30;77.20
81266;DHT22;70748;52.510;13.410;2023-07-31T09:55:35;19.30;76.90
81266;DHT22;70748;52.510;13.410;2023-07-31T09:58:05;19.40;77.40
81266;DHT22;70748;52.510;13.410;2023-07-31T10:00:31;19.60;75.60
81266;DHT22;70748;52.510;13.410;2023-07-31T10:03:04;19.60;74.80
81266;DHT22;70748;52.510;13.410;2023-07-31T10:05:45;19.70;75.20
81266;DHT22;70748;52.510;13.410;2023-07-31T10:08:14;20.00;74.70
81266;DHT22;70748;52.510;13.410;2023-07-31T10:10:44;20.10;72.90
81266;DHT22;70748;52.510;13.410;2023-07-31T10:13:12;20.30;72.70
81266;DHT22;70748;52.510;13.410;2023-07-31T10:15:38;20.50;73.60
81266;DHT22;70748;52.510;13.410;2023-07-31T10:18:06;20.80;71.30
81266;DHT22;70748;52.510;13.410;2023-07-31T10:20:32;21.00;70.90
81266;DHT22;70748;52.510;13.410;2023-07-31T10:22:59;21.10;70.40
81266;DHT22;70748;52.510;13.410;2023-07-31T10:25:27;21.20;69.90
81266;DHT22;70748;52.510;13.410;2023-07-31T10:27:53;21.30;68.70
81266;DHT22;70748;52.510;13.410;2023-07-31T10:30:22;20.90;70.30
81266;DHT22;70748;52.510;13.410;2023-07-31T10:32:49;20.70;71.40
81266;DHT22;70748;52.510;13.410;2023-07-31T10:35:17;20.50;72.10
81266;DHT22;70748;52.510;13.410;2023-07-31T10:37:43;20.60;73.20
81266;DHT22;70748;52.510;13.410;2023-07-31T10:40:23;20.80;73.60
81266;DHT22;70748;52.510;13.410;2023-07-31T10:42:56;21.10;71.50
81266;DHT22;70748;52.510;13.410;2023-07-31T10:45:35;21.70;70.20
81266;DHT22;70748;52.510;13.410;2023-07-31T10:48:14;21.90;68.00
81266;DHT22;70748;52.510;13.410;2023-07-31T10:50:51;22.40;67.40
81266;DHT22;70748;52.510;13.410;2023-07-31T10:53:29;23.10;64.80
81266;DHT22;70748;52.510;13.410;2023-07-31T10:55:58;24.20;62.10
81266;DHT22;70748;52.510;13.410;2023-07-31T10:58:24;25.00;58.50
81266;DHT22;70748;52.510;13.410;2023-07-31T11:00:55;25.50;57.30
81266;DHT22;70748;52.510;13.410;2023-07-31T11:03:25;25.70;56.10
81266;DHT22;70748;52.510;13.410;2023-07-31T11:06:04;25.60;55.30
81266;DHT22;70748;52.510;13.410;2023-07-31T11:08:30;25.50;55.90
81266;DHT22;70748;52.510;13.410;2023-07-31T11:13:32;24.90;57.60
81266;DHT22;70748;52.510;13.410;2023-07-31T11:15:59;24.40;57.90
81266;DHT22;70748;52.510;13.410;2023-07-31T11:18:26;24.30;57.30
81266;DHT22;70748;52.510;13.410;2023-07-31T11:20:52;24.10;58.50
81266;DHT22;70748;52.510;13.410;2023-07-31T11:23:19;24.00;57.70
81266;DHT22;70748;52.510;13.410;2023-07-31T11:25:45;23.80;59.00
81266;DHT22;70748;52.510;13.410;2023-07-31T11:28:13;23.60;57.80
81266;DHT22;70748;52.510;13.410;2023-07-31T11:30:43;23.60;58.70
81266;DHT22;70748;52.510;13.410;2023-07-31T11:33:11;23.60;58.50
81266;DHT22;70748;52.510;13.410;2023-07-31T11:35:45;23.50;58.40
81266;DHT22;70748;52.510;13.410;2023-07-31T11:38:24;23.40;59.00
81266;DHT22;70748;52.510;13.410;2023-07-31T11:40:51;23.30;58.10
81266;DHT22;70748;52.510;13.410;2023-07-31T11:43:18;23.20;58.90
81266;DHT22;70748;52.510;13.410;2023-07-31T11:45:51;23.20;58.10
81266;DHT22;70748;52.510;13.410;2023-07-31T11:48:31;23.10;57.00
81266;DHT22;70748;52.510;13.410;2023-07-31T11:51:09;23.10;57.90
81266;DHT22;70748;52.510;13.410;2023-07-31T11:53:51;23.10;59.70
81266;DHT22;70748;52.510;13.410;2023-07-31T11:56:18;23.10;58.10
81266;DHT22;70748;52.510;13.410;2023-07-31T11:58:51;23.10;58.70
81266;DHT22;70748;52.510;13.410;2023-07-31T12:01:20;22.90;58.10
81266;DHT22;70748;52.510;13.410;2023-07-31T12:03:47;22.80;60.10
81266;DHT22;70748;52.510;13.410;2023-07-31T12:06:13;22.80;58.90
81266;DHT22;70748;52.510;13.410;2023-07-31T12:08:38;22.70;59.10
81266;DHT22;70748;52.510;13.410;2023-07-31T12:11:05;22.50;59.30
81266;DHT22;70748;52.510;13.410;2023-07-31T12:13:32;22.40;60.40
81266;DHT22;70748;52.510;13.410;2023-07-31T12:16:00;22.50;60.40
81266;DHT22;70748;52.510;13.410;2023-07-31T12:18:30;22.70;60.20
81266;DHT22;70748;52.510;13.410;2023-07-31T12:21:00;22.80;59.10
81266;DHT22;70748;52.510;13.410;2023-07-31T12:23:30;22.90;59.60
81266;DHT22;70748;52.510;13.410;2023-07-31T12:26:16;23.10;58.20
81266;DHT22;70748;52.510;13.410;2023-07-31T12:28:45;23.20;57.70
81266;DHT22;70748;52.510;13.410;2023-07-31T12:31:16;23.30;58.70
81266;DHT22;70748;52.510;13.410;2023-07-31T12:33:46;23.20;58.00
81266;DHT22;70748;52.510;13.410;2023-07-31T12:36:14;23.30;56.50
81266;DHT22;70748;52.510;13.410;2023-07-31T12:38:41;23.70;56.00
81266;DHT22;70748;52.510;13.410;2023-07-31T12:41:07;24.00;56.10
81266;DHT22;70748;52.510;13.410;2023-07-31T12:43:39;24.20;56.30
81266;DHT22;70748;52.510;13.410;2023-07-31T12:46:05;24.30;54.90
81266;DHT22;70748;52.510;13.410;2023-07-31T12:48:34;24.50;53.20
81266;DHT22;70748;52.510;13.410;2023-07-31T12:51:00;24.30;54.00
81266;DHT22;70748;52.510;13.410;2023-07-31T12:53:27;24.20;55.10
81266;DHT22;70748;52.510;13.410;2023-07-31T12:55:53;24.20;55.30
81266;DHT22;70748;52.510;13.410;2023-07-31T12:58:18;24.00;54.80
81266;DHT22;70748;52.510;13.410;2023-07-31T13:00:44;23.90;55.10
81266;DHT22;70748;52.510;13.410;2023-07-31T13:03:10;23.90;55.50
81266;DHT22;70748;52.510;13.410;2023-07-31T13:05:36;23.70;55.30
81266;DHT22;70748;52.510;13.410;2023-07-31T13:08:01;23.50;57.50
81266;DHT22;70748;52.510;13.410;2023-07-31T13:10:27;23.50;57.30
81266;DHT22;70748;52.510;13.410;2023-07-31T13:12:54;23.30;56.90
81266;DHT22;70748;52.510;13.410;2023-07-31T13:15:20;23.30;57.10
81266;DHT22;70748;52.510;13.410;2023-07-31T13:17:46;23.30;57.50
81266;DHT22;70748;52.510;13.410;2023-07-31T13:20:12;23.20;56.80
81266;DHT22;70748;52.510;13.410;2023-07-31T13:22:37;23.00;57.10
81266;DHT22;70748;52.510;13.410;2023-07-31T13:25:03;23.00;58.40
81266;DHT22;70748;52.510;13.410;2023-07-31T13:27:29;23.20;57.90
81266;DHT22;70748;52.510;13.410;2023-07-31T13:29:55;23.20;57.90
81266;DHT22;70748;52.510;13.410;2023-07-31T13:32:21;23.30;57.80
81266;DHT22;70748;52.510;13.410;2023-07-31T13:34:48;23.30;58.00
81266;DHT22;70748;52.510;13.410;2023-07-31T13:37:14;23.40;57.50
81266;DHT22;70748;52.510;13.410;2023-07-31T13:39:40;23.40;57.90
81266;DHT22;70748;52.510;13.410;2023-07-31T13:42:07;23.70;57.80
81266;DHT22;70748;52.510;13.410;2023-07-31T13:44:36;24.10;56.30
81266;DHT22;70748;52.510;13.410;2023-07-31T13:47:02;24.40;54.90
81266;DHT22;70748;52.510;13.410;2023-07-31T13:49:28;24.40;54.30
81266;DHT22;70748;52.510;13.410;2023-07-31T13:51:54;24.40;53.80
81266;DHT22;70748;52.510;13.410;2023-07-31T13:54:20;24.50;55.20
81266;DHT22;70748;52.510;13.410;2023-07-31T13:56:45;24.50;56.90
81266;DHT22;70748;52.510;13.410;2023-07-31T13:59:11;24.70;54.60
81266;DHT22;70748;52.510;13.410;2023-07-31T14:01:37;24.70;53.50
81266;DHT22;70748;52.510;13.410;2023-07-31T14:04:03;24.50;54.80
81266;DHT22;70748;52.510;13.410;2023-07-31T14:06:29;24.30;54.70
81266;DHT22;70748;52.510;13.410;2023-07-31T14:08:54;24.20;54.20
81266;DHT22;70748;52.510;13.410;2023-07-31T14:11:21;24.00;56.50
81266;DHT22;70748;52.510;13.410;2023-07-31T14:13:47;24.00;55.50
81266;DHT22;70748;52.510;13.410;2023-07-31T14:16:13;24.00;55.10
81266;DHT22;70748;52.510;13.410;2023-07-31T14:18:38;24.10;54.20
81266;DHT22;70748;52.510;13.410;2023-07-31T14:21:04;24.00;55.10
81266;DHT22;70748;52.510;13.410;2023-07-31T14:23:30;24.10;56.80
81266;DHT22;70748;52.510;13.410;2023-07-31T14:25:56;24.00;56.10
81266;DHT22;70748;52.510;13.410;2023-07-31T14:28:21;23.90;55.80
81266;DHT22;70748;52.510;13.410;2023-07-31T14:30:47;23.90;56.30
81266;DHT22;70748;52.510;13.410;2023-07-31T14:33:13;23.70;57.00
81266;DHT22;70748;52.510;13.410;2023-07-31T14:35:38;23.80;56.50
81266;DHT22;70748;52.510;13.410;2023-07-31T14:38:04;23.90;56.50
81266;DHT22;70748;52.510;13.410;2023-07-31T14:40:29;23.90;55.00
81266;DHT22;70748;52.510;13.410;2023-07-31T14:42:55;23.90;55.70
81266;DHT22;70748;52.510;13.410;2023-07-31T14:45:21;23.80;55.90
81266;DHT22;70748;52.510;13.410;2023-07-31T14:47:46;23.90;55.40
81266;DHT22;70748;52.510;13.410;2023-07-31T14:50:12;23.80;55.70
81266;DHT22;70748;52.510;13.410;2023-07-31T14:52:38;23.80;54.50
81266;DHT22;70748;52.510;13.410;2023-07-31T14:55:04;23.80;55.90
81266;DHT22;70748;52.510;13.410;2023-07-31T14:57:29;23.80;54.90
81266;DHT22;70748;52.510;13.410;2023-07-31T14:59:55;23.70;55.00
81266;DHT22;70748;52.510;13.410;2023-07-31T15:02:21;23.80;54.70
81266;DHT22;70748;52.510;13.410;2023-07-31T15:04:46;23.70;54.30
81266;DHT22;70748;52.510;13.410;2023-07-31T15:07:12;23.40;55.00
81266;DHT22;70748;52.510;13.410;2023-07-31T15:09:39;23.30;55.70
81266;DHT22;70748;52.510;13.410;2023-07-31T15:12:05;23.20;56.50
81266;DHT22;70748;52.510;13.410;2023-07-31T15:14:31;23.20;57.10
81266;DHT22;70748;52.510;13.410;2023-07-31T15:16:57;23.10;57.40
81266;DHT22;70748;52.510;13.410;2023-07-31T15:19:22;23.10;58.30
81266;DHT22;70748;52.510;13.410;2023-07-31T15:21:51;23.10;57.80
81266;DHT22;70748;52.510;13.410;2023-07-31T15:24:16;23.10;59.00
81266;DHT22;70748;52.510;13.410;2023-07-31T15:26:42;23.00;58.70
81266;DHT22;70748;52.510;13.410;2023-07-31T15:29:08;23.00;59.50
81266;DHT22;70748;52.510;13.410;2023-07-31T15:31:35;23.10;59.90